Terminal Aerodrome Forecast
Issued by NWS

Home | Current Version | Previous Version | Graphics & Text | Print | Product List | Glossary On
Versions: 1 2 3 4 5 6 7 8 9 10 11 12 13 14 15 16 17 18 19 20 21
000
FTUS41 KCLE 170500
TAFFDY
TAF
KFDY 170525Z 1706/1806 25018G25KT P6SM OVC008
      TEMPO 1706/1709 4SM -SHSN
     FM170900 26018G25KT P6SM SCT008 OVC015
     FM171700 27015G25KT P6SM SCT015 OVC025
     FM172100 27012G22KT P6SM OVC035
     FM172300 27010KT P6SM OVC040=

USA.gov is the U.S. government's official web portal to all federal, state and local government web resources and services.